Latest Coastal Weather Observations for Mackay

IDQ60701

Issued at 1:15 am EST Sunday 24 August 2014 (issued every 10 minutes, with the page automatically refreshed every 10 minutes)

About coastal observations | Map of coastal stations | Coastal observations for QLD | Marine services | Other Formats
Station Details ID: 033119 Name: MACKAY M.O Lat: -21.12 Lon: 149.22 Height: 30.26 m
Data from the previous 72 hours. | See also: Recent months at Mackay
Date/Time
EST
Temp

°C
Wind Pressure Rain
since 9am
mm
Weather Cloud Vis
km
Sea
Height
m
Swell
Dir
 
Speed
knots
Gust
knots
hPa Trend Height
m
Period
s
Dir
24/01:00am 14.9 SW 5 6 1019.7 - 0.0 - - - - - - -
24/12:30am 15.0 SW 6 7 1019.7 - 0.0 - - - - - - -
24/12:00am 15.0 SW 5 6 1019.9 - 0.0 - - - - - - -
 
Date/Time
EST
Temp

°C
Wind Pressure Rain
since 9am
mm
Weather Cloud Vis
km
Sea
Height
m
Swell
Dir
 
Speed
knots
Gust
knots
hPa Trend Height
m
Period
s
Dir
23/11:30pm 15.2 SW 6 7 1019.9 - 0.0 - - - - - - -
23/11:00pm 15.6 WSW 5 7 1020.0 - 0.0 - - - - - - -
23/10:30pm 16.2 SW 4 6 1019.9 - 0.0 - - - - - - -
23/10:00pm 17.1 S 5 6 1019.9 - 0.0 - - - - - - -
23/09:30pm 17.2 SSE 4 5 1019.7 - 0.0 - - - - - - -
23/09:00pm 18.1 SE 4 5 1019.8 F 0.0 - - - - - - -
23/08:30pm 18.4 ESE 4 5 1019.7 - 0.0 - - - - - - -
23/08:00pm 17.9 SE 4 5 1019.4 - 0.0 - - - - - - -
23/07:30pm 18.2 ENE 3 5 1019.2 - 0.0 - - - - - - -
23/07:00pm 18.2 SE 4 5 1018.8 - 0.0 - - - - - - -
23/06:30pm 18.5 ESE 4 6 1018.4 - 0.0 - - - - - - -
23/06:00pm 19.0 ESE 4 6 1018.1 R 0.0 - - - - - - -
23/05:30pm 19.5 E 4 6 1017.9 - 0.0 - - - - - - -
23/05:00pm 20.0 E 6 9 1017.7 - 0.0 - Mostly clear 10 - - - -
23/04:30pm 20.2 E 6 10 1017.4 - 0.0 - Mostly clear 10 - - - -
23/04:00pm 20.2 ESE 7 11 1017.3 - 0.0 - Mostly clear 10 - - - -
23/03:30pm 20.4 ESE 7 10 1017.2 - 0.0 - Mostly clear 10 - - - -
23/03:00pm 20.4 ESE 8 13 1017.4 R 0.0 Fine Mostly clear 30 - - - -
23/02:30pm 20.7 SE 8 13 1017.5 - 0.0 - Mostly clear 10 - - - -
23/02:00pm 20.4 ESE 8 13 1017.8 - 0.0 - Mostly clear 10 - - - -
23/01:30pm 20.3 ESE 8 13 1018.2 - 0.0 - Mostly clear 10 - - - -
23/01:00pm 20.9 SE 8 13 1018.5 - 0.0 - Mostly clear 10 - - - -
23/12:30pm 20.2 ESE 9 14 1019.0 - 0.0 - Mostly clear 10 - - - -
23/12:00pm 19.7 E 8 13 1019.6 F 0.0 Fine Mostly clear 30 - - - -
23/11:30am 20.4 ESE 8 12 1020.0 - 0.0 - Mostly clear 10 - - - -
23/11:00am 19.9 ESE 6 9 1020.4 - 0.0 - Mostly clear 10 - - - -
23/10:30am 20.4 SE 7 12 1020.9 - 0.0 - Mostly clear 10 - - - -
23/10:00am 20.2 SSE 9 14 1021.2 - 0.0 - Mostly clear 10 - - - -
23/09:30am 19.7 SSE 11 16 1021.3 - 0.0 - Mostly clear 10 - - - -
23/09:00am 19.2 SSE 12 19 1021.3 S 0.0 Fine Partly cloudy 30 - - - -
23/08:30am 18.7 S 12 17 1021.1 - 0.0 - Mostly clear 10 - - - -
23/08:00am 17.8 S 10 16 1020.7 - 0.0 - Mostly clear 10 - - - -
23/07:30am 16.5 S 8 11 1020.5 - 0.0 - Mostly clear 10 - - - -
23/07:00am 15.2 S 7 9 1020.1 - 0.0 - Mostly clear 10 - - - -
23/06:30am 15.5 S 9 11 1019.8 - 0.0 - Mostly clear 10 - - - -
23/06:00am 15.3 S 9 11 1019.7 R 0.0 Fine Partly cloudy 30 - - - -
23/05:30am 14.5 SSW 8 9 1019.2 - 0.0 - Partly cloudy - - - - -
23/05:00am 14.7 SSW 7 8 1018.9 - 0.0 - Partly cloudy - - - - -
23/04:30am 14.5 SSW 7 8 1018.6 - 0.0 - Partly cloudy - - - - -
23/04:00am 14.4 SSW 7 9 1018.5 - 0.0 - Partly cloudy - - - - -
23/03:30am 14.2 SSW 7 8 1018.4 - 0.0 - - - - - - -
23/03:00am 14.1 SSW 7 9 1018.6 - 0.0 - Mostly clear - - - - -
23/02:30am 14.3 SSW 7 9 1018.9 - 0.0 - Partly cloudy - - - - -
23/02:00am 14.3 SW 6 8 1019.1 - 0.0 - Partly cloudy - - - - -
23/01:30am 14.3 SW 6 7 1019.3 - 0.0 - Partly cloudy - - - - -
23/01:00am 14.8 SW 6 7 1019.4 - 0.0 - - - - - - -
23/12:30am 15.1 SW 6 7 1019.6 - 0.0 - - - - - - -
23/12:00am 15.4 SSW 5 7 1019.6 - 0.0 - - - - - - -
 
Date/Time
EST
Temp

°C
Wind Pressure Rain
since 9am
mm
Weather Cloud Vis
km
Sea
Height
m
Swell
Dir
 
Speed
knots
Gust
knots
hPa Trend Height
m
Period
s
Dir
22/11:30pm 16.0 SSW 6 7 1020.0 - 0.0 - Partly cloudy - - - - -
22/11:00pm 16.5 SSW 5 6 1020.2 - 0.0 - - - - - - -
22/10:30pm 16.7 SSW 5 6 1020.1 - 0.0 - - - - - - -
22/10:00pm 16.7 S 5 6 1020.2 - 0.0 - - - - - - -
22/09:30pm 17.2 SSE 5 7 1020.2 - 0.0 - - - - - - -
22/09:00pm 18.0 SE 4 6 1020.3 F 0.0 - - - - - - -
22/08:30pm 18.6 ESE 5 8 1020.2 - 0.0 - - - - - - -
22/08:00pm 18.7 ESE 6 9 1020.0 - 0.0 - - - - - - -
22/07:30pm 18.7 ESE 5 8 1019.7 - 0.0 - - - - - - -
22/07:00pm 18.6 SE 6 9 1019.5 - 0.0 - - - - - - -
22/06:30pm 18.6 SE 7 11 1019.1 - 0.0 - Partly cloudy - - - - -
22/06:00pm 18.7 SE 8 11 1018.7 F 0.0 - Mostly clear - - - - -
22/05:30pm 19.0 SE 8 13 1018.5 - 0.0 - - - - - - -
22/05:00pm 19.5 SE 10 16 1018.4 - 0.0 - - - - - - -
22/04:30pm 20.0 SE 10 17 1018.2 - 0.0 - - - - - - -
22/04:00pm 20.4 SE 10 18 1018.1 - 0.0 - Mostly clear 10 - - - -
22/03:30pm 20.5 SE 10 16 1018.1 - 0.0 - Mostly clear 10 - - - -
22/03:00pm 20.7 SE 11 16 1018.2 R 0.0 Fine Mostly clear 25 - - - -
22/02:30pm 20.9 SE 11 16 1018.4 - 0.0 - Mostly clear 10 - - - -
22/02:00pm 21.2 SE 10 16 1018.5 - 0.0 - Mostly clear 10 - - - -
22/01:30pm 20.9 SE 11 16 1018.9 - 0.0 - Mostly clear 10 - - - -
22/01:00pm 21.6 SE 10 16 1019.3 - 0.0 - Mostly clear 10 - - - -
22/12:30pm 21.2 SSE 11 16 1019.8 - 0.0 - Mostly clear 10 - - - -
22/12:00pm 20.6 SSE 10 16 1020.4 F 0.0 Fine Mostly cloudy 25 - - - -
22/11:30am 20.3 SSE 12 19 1020.8 - 0.0 - Partly cloudy 10 - - - -
22/11:00am 19.7 SSE 11 17 1021.2 - 0.0 - Mostly clear 10 - - - -
22/10:30am 19.6 SSE 11 15 1021.5 - 0.0 - Partly cloudy 10 - - - -
22/10:00am 18.9 SSE 10 15 1021.8 - 0.0 - Mostly cloudy 10 - - - -
22/09:30am 18.5 S 11 17 1021.7 - 0.0 - Mostly clear 10 - - - -
22/09:00am 17.9 S 11 18 1021.6 R 0.0 Fine Mostly cloudy 25 - - - -
22/08:30am 17.8 S 10 15 1021.2 - 0.0 - Mostly clear 10 - - - -
22/08:00am 17.6 S 12 17 1020.8 - 0.0 - Mostly clear 10 - - - -
22/07:30am 17.6 S 11 15 1020.5 - 0.0 - Mostly clear 10 - - - -
22/07:00am 17.0 S 10 16 1020.3 - 0.0 - Partly cloudy 10 - - - -
22/06:30am 16.8 S 10 15 1019.9 - 0.0 - Partly cloudy 10 - - - -
22/06:00am 16.6 S 11 15 1019.4 R 0.0 Fine Mostly cloudy 25 - - - -
22/05:30am 16.8 S 11 16 1018.9 - 0.0 - Partly cloudy - - - - -
22/05:00am 16.8 S 11 15 1018.4 - 0.0 - Partly cloudy - - - - -
22/04:30am 16.4 S 8 11 1018.1 - 0.0 - Partly cloudy - - - - -
22/04:00am 16.3 S 7 10 1018.2 - 0.0 - Partly cloudy - - - - -
22/03:30am 16.1 S 8 11 1018.3 - 0.0 - Partly cloudy - - - - -
22/03:00am 15.4 SSW 6 7 1018.3 - 0.0 - Partly cloudy - - - - -
22/02:40am 15.8 SSW 7 8 1018.4 - 0.0 - Partly cloudy - - - - -
22/02:30am 15.8 SSW 6 8 1018.5 - 0.0 - Partly cloudy - - - - -
22/02:25am 15.9 SSW 6 8 1018.6 - 0.0 - Partly cloudy - - - - -
22/02:00am 16.8 S 7 13 1018.8 - 0.0 - Partly cloudy - - - - -
22/01:30am 18.0 SSE 9 16 1019.0 - 0.0 - Partly cloudy - - - - -
22/01:17am 18.5 SSE 9 14 1019.0 - 0.0 - Partly cloudy - - - - -
22/01:01am 18.5 SE 9 15 1019.1 - 0.0 - Partly cloudy - - - - -
22/01:00am 18.5 SE 9 14 1019.1 - 0.0 - Partly cloudy - - - - -
22/12:30am 18.5 SE 9 17 1019.3 - 0.0 - Partly cloudy - - - - -
22/12:00am 18.5 SE 9 14 1019.4 - 0.0 - - - - - - -
 
Date/Time
EST
Temp

°C
Wind Pressure Rain
since 9am
mm
Weather Cloud Vis
km
Sea
Height
m
Swell
Dir
 
Speed
knots
Gust
knots
hPa Trend Height
m
Period
s
Dir
21/11:30pm 18.6 SE 9 13 1019.6 - 0.0 - Partly cloudy - - - - -
21/11:00pm 18.8 SE 7 12 1019.6 - 0.0 - Partly cloudy - - - - -
21/10:30pm 16.3 SSW 5 6 1019.7 - 0.0 - Partly cloudy - - - - -
21/10:00pm 18.4 SE 5 8 1019.8 - 0.0 - - - - - - -
21/09:30pm 18.6 SE 5 10 1019.7 - 0.0 - - - - - - -
21/09:00pm 18.7 ESE 5 8 1019.7 F 0.0 - - - - - - -
21/08:30pm 18.8 ESE 5 9 1019.6 - 0.0 - - - - - - -
21/08:00pm 18.8 E 5 9 1019.3 - 0.0 - - - - - - -
21/07:30pm 18.8 E 6 9 1019.0 - 0.0 - - - - - - -
21/07:00pm 18.8 E 6 8 1018.7 - 0.0 - - - - - - -
21/06:30pm 18.7 E 5 7 1018.4 - 0.0 - - - - - - -
21/06:00pm 18.6 E 5 7 1018.0 R 0.0 - - - - - - -
21/05:30pm 19.0 ESE 5 8 1017.7 - 0.0 - - - - - - -
21/05:00pm 19.5 ESE 6 9 1017.5 - 0.0 - Mostly clear 10 - - - -
21/04:30pm 19.8 ESE 6 9 1017.2 - 0.0 - Mostly clear 10 - - - -
21/04:00pm 20.1 ESE 6 11 1017.0 - 0.0 - Mostly clear 10 - - - -
21/03:30pm 20.4 SE 6 11 1016.9 - 0.0 - Mostly clear 10 - - - -
21/03:00pm 20.6 SE 6 11 1017.0 R 0.0 Fine Mostly clear 40 - - - -
21/02:30pm 20.9 SE 7 11 1017.1 - 0.0 - Partly cloudy 10 - - - -
21/02:00pm 21.2 SE 8 13 1017.4 - 0.0 - Partly cloudy 10 - - - -
21/01:30pm 20.8 SE 7 11 1017.6 - 0.0 - Partly cloudy 10 - - - -
21/01:00pm 21.3 SE 7 12 1018.1 - 0.0 - Partly cloudy 10 - - - -
21/12:30pm 20.8 SE 8 13 1018.4 - 0.0 - Partly cloudy 10 - - - -
21/12:00pm 21.0 SSE 9 13 1018.9 R 0.0 Fine Partly cloudy 4 - - - -
21/11:30am 21.2 SE 8 13 1019.3 - 0.0 - - - - - - -
21/11:00am 21.1 SSE 7 11 1019.7 - 0.0 - - - - - - -
21/10:30am 21.2 SSE 8 12 1019.9 - 0.0 - Mostly clear 10 - - - -
21/10:00am 19.9 SSE 9 12 1020.0 - 0.0 - Mostly clear 10 - - - -
21/09:30am 19.4 S 6 10 1019.9 - 0.0 - Mostly clear 10 - - - -
21/09:00am 18.1 S 8 11 1019.7 S 0.0 Fine Mostly clear 40 - - - -
21/08:30am 16.6 SSW 8 11 1019.6 - 0.0 - Mostly clear 10 - - - -
21/08:00am 15.1 SSW 7 9 1019.4 - 0.0 - Mostly clear 10 - - - -
21/07:30am 13.2 SW 7 10 1019.0 - 0.0 - Mostly clear 10 - - - -
21/07:00am 11.7 SW 8 10 1018.7 - 0.0 - Mostly clear 10 - - - -
21/06:30am 11.2 SW 8 9 1018.4 - 0.0 - Mostly clear 10 - - - -
21/06:00am 11.1 SW 7 11 1018.1 F 0.0 Fine Mostly clear 40 - - - -
21/05:30am 11.3 WSW 7 9 1017.9 - 0.0 - - - - - - -
21/05:00am 11.3 SW 8 10 1017.6 - 0.0 - - - - - - -
21/04:30am 11.3 SW 8 11 1017.4 - 0.0 - - - - - - -
21/04:00am 11.6 SW 8 12 1017.6 - 0.0 - - - - - - -
21/03:30am 11.8 SW 7 9 1017.7 - 0.0 - - - - - - -
21/03:00am 11.9 SW 7 9 1017.8 - 0.0 - - - - - - -
21/02:30am 12.2 SW 7 9 1018.1 - 0.0 - - - - - - -
21/02:00am 12.4 SW 8 10 1018.4 - 0.0 - - - - - - -
21/01:30am 12.5 SW 8 10 1018.7 - 0.0 - - - - - - -

Other Formats:

Comma delimited format used in spreadsheet applications
http://www.bom.gov.au/fwo/IDQ60701/IDQ60701.94367.axf

JavaScript Object Notation format (JSON) in row-major order
http://www.bom.gov.au/fwo/IDQ60701/IDQ60701.94367.json